Weather at Clonkeiffy Farm Airstrip

Public forecast

Using degrees Celsius for public forecast. Weather courtesy of forecast.io.

Closest aviation weather report (METAR) to Clonkeiffy Farm Airstrip

Closest report is Dublin Airport, 39.8 nm (73.8 km) SE.

2024/05/21 06:30 (retrieved 39 minutes ago)

EIDW 210630Z 10007KT 6000 FEW004 SCT050 BKN110 13/12 Q1011 BECMG 7000 NSW

Closest aviation forecast (TAF) to Clonkeiffy Farm Airstrip

Closest forecast is Dublin Airport, 39.8 nm (73.8 km) SE.

2024/05/21 06:42 Ammendment (retrieved 27 minutes ago)

TAF AMD EIDW 210635Z 2106/2206 12007KT 7000 FEW020 PROB30 TEMPO 2107/2109 -SHRA FEW020CB TEMPO 2109/2115 -SHRA SCT020CB PROB40 TEMPO 2109/2114 4000 SHRA BKN012 PROB40 TEMPO 2115/2121 -SHRA FEW020CB BECMG 2116/2118 VRB03KT BECMG 2122/2124 28006KT PROB30 TEMPO 2122/2124 4000 BR BKN007 TEMPO 2200/2206 3000 BR BKN004 BECMG 2201/2203 32009KT